Aérodrome :
LOGIN :

S'inscrire | Disclaimer

   EN    FR    IT 

 










Légende :    VFR   VFR Marginal   IFR   IFR Intensif   IFR Très Intensif
Visi : 
Plafond : 
>= 8 km
>= 3000ft
5 à 8 km
1000 à 3000 ft
1500m à 5 km
500 à 1000 ft
800 à 1500m
200 à 500 ft
< 800m
< 200 ft
Symboles :   Orages  Brouillard  Fortes neiges  Fortes précipitations  Vent > 20 kt
SIGMETs :   Divers  Orages  Givrage  Turbulence  Onde Orograph.  Cendres Volcan.







- Altitude de l'aérodrome : 17 ft
- Code IATA : GRS


LIRS - Grosseto

DERNIER METAR :
  • 220555Z 01009KT 9999 FEW015 BKN060 05/02 Q1001 RMK BKN VIS MIN 9999 WIND THR03 02009KT WIND THR21 03010KT BLU

METARs EXPIRÉS :
  • 220455Z 02013KT 9999 FEW015 BKN040 05/02 Q1001 RMK BKN VIS MIN 9999 WIND THR03 03013KT WIND THR21 02011KT BLU

TAF TAF LIRS
Valide du 22 à 06h jusqu'au 22 à 15h UTC


220500Z 2206/2215 03015KT 9999 SCT015 SCT060
TEMPO 2206/2212 RA BKN020
Pas de NOTAMs connus pour ce terrain.
1 SIGMET publié pour la FIR Roma (LIRR) :
 
Orages noyés dans la masse
LIRR SIGMET 1 VALID 220548/220800 LIIB
LIRR ROMA FIR EMBD TS FCST WI N3753 E01037 - N3906 E01102 - N3858 E01231 - N3633 E01337 - N3632 E01131 - N3732 E01125 - N3753 E01037 TOP ABV FL200 STNR NC=



MET'MAP, la Météo Aéronautique d'un coup d'oeil ! - Copyright ORBIFLY Décembre 2007 - Disclaimer

ORBIFLY MET'MAP TEAM :

Programmation & Développement : Alexandra Zaïnal
Conception & Développement : Baudouin d'Aumeries
Co-Programmation & Développement : Marc-Olivier Méhu
Soutien technique & logistique : Manuel Goepfert

Contact : metmap@orbifly.com




SOURCES & CREDITS :

   NOAA